Flight Track Log - Related Links

Times and Time Zones

All times are in EDT time to prevent confusion due to time zone crossing. See the ASQ5941 flight status page for this flight to view local times or setup timezone preferences in your user account.

Time Position Orientation Groundspeed Altitude Reporting Facility
EDT Latitude Longitude Course Direction KTS MPH feet Rate Location/Type
Wed 02:57:40 PM 42.0000 -87.9333 80° East 161 185 2,100  Level Chicago TRACON
Wed 02:58:46 PM 42.0500 -87.8833 37° Northeast 233 268 4,000 1,900 Climbing Chicago TRACON
Wed 02:59:40 PM 42.0833 -87.8167 56° Northeast 264 304 5,900 2,151 Climbing Chicago TRACON
Wed 03:01:00 PM 42.0631 -87.2818 78° East  Level FlightAware Approximate
Wed 03:01:25 PM 42.0833 -87.6350 90° East 289 333 9,700  Level Chicago Center
Wed 03:02:00 PM 42.0875 -87.1251 77° East  Level FlightAware Approximate
Wed 03:02:27 PM 42.0892 -87.5211 86° East 302 348 11,800  Level Chicago Center
Wed 03:03:00 PM 42.1041 -86.9676 80° East  Level FlightAware Approximate
Wed 03:03:29 PM 42.0956 -87.4019 86° East 316 364 13,800  Level Chicago Center
Wed 03:04:31 PM 42.1011 -87.2789 86° East 325 374 15,000 629 Climbing Chicago Center
Wed 03:05:33 PM 42.1075 -87.1525 86° East 335 386 15,100 532 Climbing Chicago Center
Wed 03:06:35 PM 42.1144 -86.9858 87° East 369 425 16,100 1,016 Climbing Chicago Center
Wed 03:07:37 PM 42.1189 -86.8417 88° East 383 441 17,200 1,065 Climbing Chicago Center
Wed 03:08:39 PM 42.1247 -86.6931 87° East 393 452 18,300 1,161 Climbing Chicago Center
Wed 03:09:41 PM 42.1308 -86.5306 87° East 409 471 19,600 1,210 Climbing Chicago Center
Wed 03:10:43 PM 42.1367 -86.3756 87° East 414 476 20,800 1,161 Climbing Chicago Center
Wed 03:11:45 PM 42.1414 -86.2189 88° East 418 481 22,000 1,113 Climbing Chicago Center
Wed 03:12:47 PM 42.1436 -86.0606 89° East 422 486 23,100 1,210 Climbing Chicago Center
Wed 03:13:49 PM 42.1414 -85.8839 91° East 423 487 24,500 1,210 Climbing Chicago Center
Wed 03:14:51 PM 42.1411 -85.7228 90° East 428 493 25,600 1,113 Climbing Chicago Center
Wed 03:15:53 PM 42.1403 -85.5631 90° East 430 495 26,800 1,065 Climbing Chicago Center
Wed 03:16:55 PM 42.1375 -85.4017 91° East 432 497 27,800 914 Climbing Chicago Center
Wed 03:17:38 PM 42.1369 -85.2769 90° East 446 513 28,400 932 Climbing Cleveland Center
Wed 03:18:38 PM 42.1375 -85.1117 90° East 446 513 29,400 1,000 Climbing Cleveland Center
Wed 03:19:38 PM 42.1333 -84.9461 92° East 439 505 30,400 800 Climbing Cleveland Center
Wed 03:20:38 PM 42.1292 -84.7778 92° East 444 511 31,000 300 Climbing Cleveland Center
Wed 03:21:38 PM 42.1272 -84.5983 91° East 457 526 31,000  Level Cleveland Center
Wed 03:22:38 PM 42.1317 -84.4108 88° East 476 548 31,000  Level Cleveland Center
Wed 03:23:38 PM 42.1508 -84.2019 83° East 498 573 31,000  Level Cleveland Center
Wed 03:24:38 PM 42.1714 -84.0153 81° East 503 579 31,000  Level Cleveland Center
Wed 03:25:38 PM 42.2225 -83.8331 69° East 508 585 31,000  Level Cleveland Center
Wed 03:26:38 PM 42.2464 -83.6492 80° East 508 585 31,000  Level Cleveland Center
Wed 03:27:38 PM 42.2442 -83.4864 91° East 485 558 31,000  Level Cleveland Center
Wed 03:28:38 PM 42.2492 -83.2844 88° East 485 558 31,000  Level Cleveland Center
Wed 03:29:38 PM 42.2467 -83.1189 91° East 485 558 31,000  Level Cleveland Center
Wed 03:30:38 PM 42.2464 -82.9336 90° East 485 558 31,000  Level Cleveland Center
Wed 03:31:38 PM 42.2481 -82.7514 89° East 485 558 31,000  Level Cleveland Center
Wed 03:32:38 PM 42.2472 -82.5692 90° East 485 558 31,000  Level Cleveland Center
Wed 03:33:38 PM 42.2458 -82.3894 91° East 480 552 31,000  Level Cleveland Center
Wed 03:35:38 PM 42.2450 -82.0108 90° East 475 547 31,000  Level Cleveland Center
Wed 03:36:38 PM 42.2428 -81.8481 91° East 475 547 31,000  Level Cleveland Center
Wed 03:37:38 PM 42.2403 -81.6714 91° East 475 547 31,000  Level Cleveland Center
Wed 03:38:38 PM 42.2397 -81.4919 90° East 475 547 31,000  Level Cleveland Center
Wed 03:39:38 PM 42.2369 -81.3094 91° East 480 552 31,000  Level Cleveland Center
Wed 03:40:38 PM 42.2358 -81.1272 90° East 480 552 31,000  Level Cleveland Center
Wed 03:41:38 PM 42.2325 -80.9308 91° East 474 545 31,000  Level Cleveland Center
Wed 03:42:38 PM 42.2308 -80.7514 91° East 480 552 31,000  Level Cleveland Center
Wed 03:43:38 PM 42.2247 -80.5719 93° East 480 552 31,000  Level Cleveland Center
Wed 03:44:38 PM 42.2225 -80.3869 91° East 480 552 31,000  Level Cleveland Center
Wed 03:45:38 PM 42.2178 -80.2019 92° East 480 552 31,000  Level Cleveland Center
Wed 03:46:38 PM 42.2128 -80.0169 92° East 486 559 31,000  Level Cleveland Center
Wed 03:47:38 PM 42.2100 -79.8514 91° East 486 559 31,000  Level Cleveland Center
Wed 03:48:38 PM 42.2064 -79.6667 91° East 486 559 31,000  Level Cleveland Center
Wed 03:49:38 PM 42.2006 -79.4789 92° East 497 572 31,000  Level Cleveland Center
Wed 03:50:38 PM 42.1925 -79.2911 93° East 497 572 31,000  Level Cleveland Center
Wed 03:51:38 PM 42.1797 -79.1067 95° East 497 572 31,000  Level Cleveland Center
Wed 03:52:38 PM 42.1422 -78.9394 107° East 489 563 31,000 -150 Level Cleveland Center
Wed 03:53:38 PM 42.1019 -78.7725 108° East 470 541 30,700 -650 Descending Cleveland Center
Wed 03:54:38 PM 42.0575 -78.6031 109° East 475 547 29,700 -1,000 Descending Cleveland Center
Wed 03:55:38 PM 42.0150 -78.4367 109° East 475 547 28,700 -1,050 Descending Cleveland Center
Wed 03:56:38 PM 41.9722 -78.2678 109° East 475 547 27,600 -1,180 Descending Cleveland Center
Wed 03:58:41 PM 41.8794 -77.9136 109° East 489 563 25,100 -1,180 Descending New York Center
Wed 03:59:41 PM 41.8264 -77.7550 114° Southeast 465 535 24,000 -1,068 Descending New York Center
Wed 04:00:39 PM 41.7667 -77.6011 117° Southeast 465 535 23,000 -504 Descending New York Center
Wed 04:01:40 PM 41.7189 -77.4517 113° Southeast 442 509 23,000  Level New York Center
Wed 04:02:41 PM 41.7011 -77.2833 98° East 440 506 23,000 -545 Level New York Center
Wed 04:03:41 PM 41.6789 -77.1172 100° East 445 512 21,900 -1,600 Descending New York Center
Wed 04:04:41 PM 41.6603 -76.9569 99° East 445 512 19,800 -2,764 Descending New York Center
Wed 04:06:00 PM 41.6298 -76.7456 101° East  Level FlightAware Approximate
Wed 04:06:39 PM 41.6208 -76.6647 101° East 426 490 13,700  Level New York Center
Wed 04:07:40 PM 41.5994 -76.5075 100° East 404 465 11,000 -1,785 Descending New York Center
Wed 04:08:40 PM 41.5844 -76.3842 99° East 360 414 10,100 -1,150 Descending New York Center
Wed 04:09:40 PM 41.5692 -76.2692 100° East 321 369 8,700 -1,271 Descending New York Center
Wed 04:10:38 PM 41.5567 -76.1739 100° East 294 338 7,600 -850 Descending New York Center
Wed 04:11:40 PM 41.5300 -76.0747 110° East 283 326 7,000 -293 Descending New York Center
Wed 04:12:41 PM 41.5031 -75.9786 110° East 278 320 7,000 -397 Level New York Center
Wed 04:13:41 PM 41.4717 -75.8875 115° Southeast 278 320 6,200 -1,322 Descending New York Center
Wed 04:14:39 PM 41.4356 -75.8072 121° Southeast 265 305 4,400 -1,576 Descending New York Center
Wed 04:15:39 PM 41.4158 -75.7311 109° East 242 278 3,100 -1,300 Descending New York Center

Login

Don't have an account? Register now (free) for customized features, flight alerts, and more!